DLH4TR EDDF-EDDM
Flight info
| Callsign | DLH4TR |
|---|---|
| Flight time | 0h 45m |
| Altitude | 23000 |
| Route | CINDY8S/18 CINDY Z74 HAREM T104 ROKIL ROKIL1B |
| Aircraft | A320/M-SDE3FGHIRWY/LB1 |
Departure
| Time | 2026-05-07 12:06 |
|---|---|
| Airport | Frankfurt Main Airport (EDDF) |
Arrival
| Time | 2026-05-07 12:51 |
|---|---|
| Airport | Munich Airport (EDDM) |
| Time | Latitude | Longitude | Altitude | Speed | Heading |
|---|---|---|---|---|---|
| 2026-05-07 11:46 | 50.04466 | 8.56485 | 356 ft | 0 kts | 159° |
| 2026-05-07 11:52 | 50.04477 | 8.56478 | 364 ft | 3 kts | 159° |
| 2026-05-07 11:52 | 50.04496 | 8.56467 | 363 ft | 3 kts | 158° |
| 2026-05-07 11:52 | 50.04515 | 8.56456 | 362 ft | 3 kts | 160° |
| 2026-05-07 11:53 | 50.04534 | 8.56446 | 360 ft | 3 kts | 169° |
| 2026-05-07 11:53 | 50.04553 | 8.56444 | 358 ft | 2 kts | 195° |
| 2026-05-07 11:53 | 50.04559 | 8.56446 | 356 ft | 0 kts | 204° |
| 2026-05-07 11:57 | 50.04533 | 8.56423 | 371 ft | 6 kts | 218° |
| 2026-05-07 11:57 | 50.04511 | 8.56362 | 362 ft | 9 kts | 249° |
| 2026-05-07 11:57 | 50.04482 | 8.56240 | 363 ft | 13 kts | 250° |
| 2026-05-07 11:57 | 50.04451 | 8.56108 | 363 ft | 9 kts | 250° |
| 2026-05-07 11:58 | 50.04414 | 8.56030 | 356 ft | 9 kts | 203° |
| 2026-05-07 11:58 | 50.04355 | 8.56048 | 358 ft | 9 kts | 159° |
| 2026-05-07 11:58 | 50.04301 | 8.56074 | 358 ft | 8 kts | 174° |
| 2026-05-07 11:58 | 50.04260 | 8.56025 | 359 ft | 10 kts | 249° |
| 2026-05-07 11:59 | 50.04221 | 8.55860 | 360 ft | 20 kts | 249° |
| 2026-05-07 11:59 | 50.04171 | 8.55651 | 354 ft | 22 kts | 249° |
| 2026-05-07 11:59 | 50.04116 | 8.55423 | 354 ft | 23 kts | 249° |
| 2026-05-07 11:59 | 50.04063 | 8.55200 | 357 ft | 20 kts | 249° |
| 2026-05-07 12:00 | 50.04013 | 8.54990 | 356 ft | 21 kts | 250° |
| 2026-05-07 12:00 | 50.03959 | 8.54765 | 356 ft | 24 kts | 250° |
| 2026-05-07 12:00 | 50.03909 | 8.54556 | 357 ft | 15 kts | 249° |
| 2026-05-07 12:00 | 50.03875 | 8.54414 | 352 ft | 10 kts | 249° |
| 2026-05-07 12:01 | 50.03833 | 8.54309 | 351 ft | 13 kts | 234° |
| 2026-05-07 12:01 | 50.03789 | 8.54178 | 351 ft | 16 kts | 250° |
| 2026-05-07 12:01 | 50.03748 | 8.54007 | 347 ft | 18 kts | 249° |
| 2026-05-07 12:01 | 50.03702 | 8.53814 | 346 ft | 20 kts | 250° |
| 2026-05-07 12:02 | 50.03652 | 8.53605 | 343 ft | 19 kts | 249° |
| 2026-05-07 12:02 | 50.03602 | 8.53408 | 336 ft | 20 kts | 249° |
| 2026-05-07 12:02 | 50.03551 | 8.53194 | 339 ft | 22 kts | 250° |
| 2026-05-07 12:02 | 50.03509 | 8.53018 | 335 ft | 14 kts | 250° |
| 2026-05-07 12:03 | 50.03477 | 8.52891 | 336 ft | 8 kts | 247° |
| 2026-05-07 12:03 | 50.03454 | 8.52811 | 333 ft | 8 kts | 246° |
| 2026-05-07 12:03 | 50.03437 | 8.52746 | 333 ft | 3 kts | 249° |
| 2026-05-07 12:03 | 50.03433 | 8.52729 | 331 ft | 0 kts | 249° |
| 2026-05-07 12:04 | 50.03431 | 8.52718 | 332 ft | 5 kts | 249° |
| 2026-05-07 12:05 | 50.03412 | 8.52641 | 333 ft | 9 kts | 249° |
| 2026-05-07 12:05 | 50.03393 | 8.52594 | 334 ft | 3 kts | 212° |
| 2026-05-07 12:05 | 50.03374 | 8.52592 | 334 ft | 4 kts | 179° |
| 2026-05-07 12:05 | 50.03171 | 8.52594 | 335 ft | 66 kts | 180° |
| 2026-05-07 12:06 | 50.02491 | 8.52602 | 335 ft | 127 kts | 180° |
| 2026-05-07 12:06 | 50.01452 | 8.52618 | 359 ft | 170 kts | 179° |
| 2026-05-07 12:06 | 50.00281 | 8.52647 | 1056 ft | 167 kts | 179° |
| 2026-05-07 12:06 | 49.99113 | 8.52658 | 1731 ft | 173 kts | 181° |
| 2026-05-07 12:07 | 49.97832 | 8.52660 | 2119 ft | 194 kts | 179° |
| 2026-05-07 12:07 | 49.96493 | 8.53355 | 2469 ft | 218 kts | 140° |
| 2026-05-07 12:07 | 49.95615 | 8.55340 | 2978 ft | 233 kts | 114° |
| 2026-05-07 12:07 | 49.94903 | 8.57626 | 3872 ft | 236 kts | 117° |
| 2026-05-07 12:08 | 49.94078 | 8.59973 | 4388 ft | 259 kts | 119° |
| 2026-05-07 12:08 | 49.93149 | 8.62493 | 4989 ft | 275 kts | 119° |
| 2026-05-07 12:08 | 49.92198 | 8.65077 | 5940 ft | 277 kts | 118° |
| 2026-05-07 12:08 | 49.91257 | 8.67682 | 6822 ft | 281 kts | 118° |
| 2026-05-07 12:09 | 49.90305 | 8.70355 | 7689 ft | 285 kts | 118° |
| 2026-05-07 12:09 | 49.89333 | 8.73069 | 8541 ft | 289 kts | 118° |
| 2026-05-07 12:09 | 49.88336 | 8.75811 | 9391 ft | 294 kts | 119° |
| 2026-05-07 12:09 | 49.87325 | 8.78601 | 10178 ft | 299 kts | 119° |
| 2026-05-07 12:10 | 49.86282 | 8.81499 | 10609 ft | 318 kts | 119° |
| 2026-05-07 12:10 | 49.85165 | 8.84589 | 10876 ft | 340 kts | 119° |
| 2026-05-07 12:10 | 49.83970 | 8.87880 | 11240 ft | 357 kts | 119° |
| 2026-05-07 12:10 | 49.82737 | 8.91263 | 11893 ft | 362 kts | 119° |
| 2026-05-07 12:11 | 49.81503 | 8.94648 | 12620 ft | 366 kts | 119° |
| 2026-05-07 12:11 | 49.80244 | 8.98103 | 13364 ft | 370 kts | 119° |
| 2026-05-07 12:11 | 49.78974 | 9.01584 | 14068 ft | 373 kts | 119° |
| 2026-05-07 12:11 | 49.77690 | 9.05101 | 14717 ft | 376 kts | 119° |
| 2026-05-07 12:12 | 49.76475 | 9.08709 | 15354 ft | 381 kts | 113° |
| 2026-05-07 12:12 | 49.75655 | 9.12621 | 15982 ft | 384 kts | 103° |
| 2026-05-07 12:12 | 49.74876 | 9.16595 | 16597 ft | 388 kts | 112° |
| 2026-05-07 12:12 | 49.73647 | 9.20269 | 17209 ft | 391 kts | 123° |
| 2026-05-07 12:13 | 49.71974 | 9.23603 | 17819 ft | 394 kts | 132° |
| 2026-05-07 12:13 | 49.70150 | 9.26794 | 18397 ft | 398 kts | 132° |
| 2026-05-07 12:13 | 49.68309 | 9.30021 | 18918 ft | 401 kts | 132° |
| 2026-05-07 12:13 | 49.66461 | 9.33271 | 19427 ft | 404 kts | 131° |
| 2026-05-07 12:14 | 49.64601 | 9.36543 | 19933 ft | 407 kts | 131° |
| 2026-05-07 12:14 | 49.62753 | 9.39799 | 20440 ft | 409 kts | 131° |
| 2026-05-07 12:14 | 49.60867 | 9.43122 | 20950 ft | 412 kts | 131° |
| 2026-05-07 12:14 | 49.58974 | 9.46456 | 21442 ft | 415 kts | 131° |
| 2026-05-07 12:15 | 49.57056 | 9.49830 | 21881 ft | 419 kts | 132° |
| 2026-05-07 12:15 | 49.55121 | 9.53229 | 22304 ft | 423 kts | 132° |
| 2026-05-07 12:15 | 49.53200 | 9.56603 | 22907 ft | 414 kts | 132° |
| 2026-05-07 12:15 | 49.51296 | 9.59943 | 23021 ft | 424 kts | 132° |
| 2026-05-07 12:16 | 49.49339 | 9.63371 | 23033 ft | 427 kts | 132° |
| 2026-05-07 12:16 | 49.47370 | 9.66811 | 23031 ft | 428 kts | 132° |
| 2026-05-07 12:16 | 49.45399 | 9.70245 | 23031 ft | 428 kts | 132° |
| 2026-05-07 12:16 | 49.43455 | 9.73621 | 23027 ft | 413 kts | 132° |
| 2026-05-07 12:17 | 49.41612 | 9.76821 | 23026 ft | 384 kts | 132° |
| 2026-05-07 12:17 | 49.39920 | 9.79760 | 23027 ft | 357 kts | 132° |
| 2026-05-07 12:17 | 49.38323 | 9.82521 | 23023 ft | 334 kts | 135° |
| 2026-05-07 12:17 | 49.36537 | 9.84693 | 23043 ft | 324 kts | 154° |
| 2026-05-07 12:18 | 49.34450 | 9.85827 | 23030 ft | 316 kts | 174° |
| 2026-05-07 12:18 | 49.32274 | 9.85854 | 23019 ft | 310 kts | 194° |
| 2026-05-07 12:18 | 49.30258 | 9.84823 | 23029 ft | 303 kts | 213° |
| 2026-05-07 12:18 | 49.28587 | 9.82917 | 23031 ft | 297 kts | 231° |
| 2026-05-07 12:19 | 49.27411 | 9.80402 | 23026 ft | 291 kts | 248° |
| 2026-05-07 12:19 | 49.26783 | 9.77470 | 23030 ft | 287 kts | 264° |
| 2026-05-07 12:19 | 49.26746 | 9.74480 | 23033 ft | 284 kts | 279° |
| 2026-05-07 12:19 | 49.27283 | 9.71575 | 23030 ft | 283 kts | 295° |
| 2026-05-07 12:20 | 49.28328 | 9.69002 | 23032 ft | 284 kts | 306° |
| 2026-05-07 12:20 | 49.29557 | 9.66654 | 23032 ft | 285 kts | 309° |
| 2026-05-07 12:20 | 49.30862 | 9.64366 | 23030 ft | 285 kts | 310° |
| 2026-05-07 12:20 | 49.32194 | 9.62099 | 23033 ft | 286 kts | 310° |
| 2026-05-07 12:21 | 49.33528 | 9.59829 | 23030 ft | 286 kts | 310° |
| 2026-05-07 12:21 | 49.34872 | 9.57573 | 23032 ft | 286 kts | 315° |
| 2026-05-07 12:21 | 49.36484 | 9.55763 | 23035 ft | 290 kts | 331° |
| 2026-05-07 12:21 | 49.38397 | 9.54722 | 23031 ft | 295 kts | 348° |
| 2026-05-07 12:22 | 49.40457 | 9.54625 | 23032 ft | 299 kts | 6° |
| 2026-05-07 12:22 | 49.42443 | 9.55518 | 23030 ft | 304 kts | 24° |
| 2026-05-07 12:22 | 49.44200 | 9.57383 | 23030 ft | 310 kts | 43° |
| 2026-05-07 12:22 | 49.45494 | 9.60043 | 23032 ft | 314 kts | 62° |
| 2026-05-07 12:23 | 49.46175 | 9.63257 | 23032 ft | 318 kts | 82° |
| 2026-05-07 12:23 | 49.46131 | 9.66658 | 23029 ft | 320 kts | 102° |
| 2026-05-07 12:23 | 49.45375 | 9.69824 | 23028 ft | 320 kts | 122° |
| 2026-05-07 12:23 | 49.44077 | 9.72613 | 23031 ft | 321 kts | 129° |
| 2026-05-07 12:24 | 49.42642 | 9.75259 | 23029 ft | 321 kts | 132° |
| 2026-05-07 12:24 | 49.41158 | 9.77825 | 23029 ft | 321 kts | 133° |
| 2026-05-07 12:24 | 49.39657 | 9.80367 | 23027 ft | 321 kts | 133° |
| 2026-05-07 12:24 | 49.38148 | 9.82890 | 23028 ft | 321 kts | 137° |
| 2026-05-07 12:25 | 49.36345 | 9.84788 | 23039 ft | 317 kts | 160° |
| 2026-05-07 12:25 | 49.34229 | 9.85567 | 23030 ft | 312 kts | 181° |
| 2026-05-07 12:25 | 49.32098 | 9.85138 | 23020 ft | 306 kts | 203° |
| 2026-05-07 12:25 | 49.30275 | 9.83641 | 23028 ft | 298 kts | 224° |
| 2026-05-07 12:26 | 49.28912 | 9.81312 | 23025 ft | 292 kts | 243° |
| 2026-05-07 12:26 | 49.28156 | 9.78466 | 23029 ft | 286 kts | 262° |
| 2026-05-07 12:26 | 49.28067 | 9.75446 | 23030 ft | 283 kts | 279° |
| 2026-05-07 12:26 | 49.28612 | 9.72595 | 23029 ft | 283 kts | 297° |
| 2026-05-07 12:27 | 49.29696 | 9.70074 | 23028 ft | 284 kts | 307° |
| 2026-05-07 12:27 | 49.31099 | 9.67948 | 23028 ft | 286 kts | 326° |
| 2026-05-07 12:27 | 49.32937 | 9.66734 | 23030 ft | 291 kts | 345° |
| 2026-05-07 12:27 | 49.34974 | 9.66523 | 23038 ft | 297 kts | 4° |
| 2026-05-07 12:28 | 49.36960 | 9.67362 | 23066 ft | 305 kts | 24° |
| 2026-05-07 12:28 | 49.38696 | 9.69282 | 23571 ft | 313 kts | 44° |
| 2026-05-07 12:28 | 49.39932 | 9.72085 | 23939 ft | 322 kts | 66° |
| 2026-05-07 12:28 | 49.40402 | 9.75443 | 24015 ft | 325 kts | 90° |
| 2026-05-07 12:29 | 49.39982 | 9.78840 | 24029 ft | 326 kts | 114° |
| 2026-05-07 12:29 | 49.38792 | 9.81788 | 24035 ft | 326 kts | 129° |
| 2026-05-07 12:29 | 49.37335 | 9.84514 | 24044 ft | 340 kts | 131° |
| 2026-05-07 12:29 | 49.35719 | 9.87308 | 24031 ft | 360 kts | 133° |
| 2026-05-07 12:30 | 49.34004 | 9.90180 | 24029 ft | 378 kts | 133° |
| 2026-05-07 12:30 | 49.32170 | 9.93238 | 24030 ft | 396 kts | 133° |
| 2026-05-07 12:30 | 49.30271 | 9.96429 | 24029 ft | 413 kts | 133° |
| 2026-05-07 12:30 | 49.28309 | 9.99762 | 24031 ft | 428 kts | 133° |
| 2026-05-07 12:31 | 49.26296 | 10.03216 | 24031 ft | 440 kts | 132° |
| 2026-05-07 12:31 | 49.24249 | 10.06742 | 24031 ft | 444 kts | 132° |
| 2026-05-07 12:31 | 49.22193 | 10.10282 | 24031 ft | 445 kts | 132° |
| 2026-05-07 12:31 | 49.20153 | 10.13779 | 24044 ft | 445 kts | 133° |
| 2026-05-07 12:32 | 49.18093 | 10.17303 | 24050 ft | 445 kts | 132° |
| 2026-05-07 12:32 | 49.16030 | 10.20832 | 24048 ft | 445 kts | 132° |
| 2026-05-07 12:32 | 49.13963 | 10.24362 | 24046 ft | 444 kts | 133° |
| 2026-05-07 12:32 | 49.11884 | 10.27832 | 23864 ft | 440 kts | 133° |
| 2026-05-07 12:33 | 49.07690 | 10.34557 | 23356 ft | 434 kts | 135° |
| 2026-05-07 12:33 | 49.05619 | 10.37828 | 23057 ft | 433 kts | 135° |
| 2026-05-07 12:33 | 49.03530 | 10.41131 | 22789 ft | 432 kts | 135° |
| 2026-05-07 12:34 | 49.01454 | 10.44429 | 22524 ft | 430 kts | 134° |
| 2026-05-07 12:34 | 48.99389 | 10.47727 | 22252 ft | 428 kts | 134° |
| 2026-05-07 12:34 | 48.97335 | 10.51007 | 21984 ft | 427 kts | 134° |
| 2026-05-07 12:34 | 48.95293 | 10.54267 | 21721 ft | 425 kts | 134° |
| 2026-05-07 12:35 | 48.93255 | 10.57514 | 21449 ft | 423 kts | 134° |
| 2026-05-07 12:35 | 48.91228 | 10.60743 | 21193 ft | 420 kts | 135° |
| 2026-05-07 12:35 | 48.89213 | 10.63947 | 20939 ft | 417 kts | 135° |
| 2026-05-07 12:35 | 48.87205 | 10.67132 | 20681 ft | 416 kts | 135° |
| 2026-05-07 12:36 | 48.85229 | 10.70264 | 20434 ft | 414 kts | 135° |
| 2026-05-07 12:36 | 48.83236 | 10.73418 | 20171 ft | 413 kts | 135° |
| 2026-05-07 12:36 | 48.81249 | 10.76558 | 19918 ft | 411 kts | 135° |
| 2026-05-07 12:36 | 48.79282 | 10.79662 | 19595 ft | 404 kts | 135° |
| 2026-05-07 12:37 | 48.77993 | 10.81690 | 19303 ft | 400 kts | 135° |
| 2026-05-07 12:37 | 48.76086 | 10.84750 | 18910 ft | 395 kts | 130° |
| 2026-05-07 12:37 | 48.74613 | 10.88236 | 18324 ft | 396 kts | 114° |
| 2026-05-07 12:37 | 48.73647 | 10.92146 | 17656 ft | 397 kts | 110° |
| 2026-05-07 12:38 | 48.72716 | 10.96093 | 17151 ft | 395 kts | 110° |
| 2026-05-07 12:38 | 48.71798 | 11.00021 | 16997 ft | 395 kts | 110° |
| 2026-05-07 12:38 | 48.70874 | 11.03956 | 17042 ft | 396 kts | 111° |
| 2026-05-07 12:38 | 48.69955 | 11.07841 | 17035 ft | 396 kts | 111° |
| 2026-05-07 12:39 | 48.69019 | 11.11780 | 17024 ft | 396 kts | 111° |
| 2026-05-07 12:39 | 48.68084 | 11.15715 | 17027 ft | 397 kts | 111° |
| 2026-05-07 12:39 | 48.67148 | 11.19638 | 17028 ft | 396 kts | 111° |
| 2026-05-07 12:39 | 48.66219 | 11.23514 | 17026 ft | 396 kts | 111° |
| 2026-05-07 12:40 | 48.65276 | 11.27438 | 17037 ft | 397 kts | 111° |
| 2026-05-07 12:40 | 48.64328 | 11.31368 | 17027 ft | 396 kts | 111° |
| 2026-05-07 12:40 | 48.63386 | 11.35279 | 16813 ft | 393 kts | 111° |
| 2026-05-07 12:40 | 48.62451 | 11.39163 | 16243 ft | 391 kts | 111° |
| 2026-05-07 12:41 | 48.61532 | 11.42973 | 15719 ft | 389 kts | 111° |
| 2026-05-07 12:41 | 48.60611 | 11.46782 | 14929 ft | 384 kts | 111° |
| 2026-05-07 12:41 | 48.59694 | 11.50565 | 14281 ft | 381 kts | 111° |
| 2026-05-07 12:41 | 48.58783 | 11.54309 | 13622 ft | 377 kts | 111° |
| 2026-05-07 12:42 | 48.57879 | 11.58022 | 12902 ft | 373 kts | 111° |
| 2026-05-07 12:42 | 48.56987 | 11.61680 | 12207 ft | 369 kts | 111° |
| 2026-05-07 12:42 | 48.56106 | 11.65304 | 11492 ft | 364 kts | 111° |
| 2026-05-07 12:42 | 48.55235 | 11.68871 | 10645 ft | 361 kts | 111° |
| 2026-05-07 12:43 | 48.54384 | 11.72350 | 10384 ft | 342 kts | 111° |
| 2026-05-07 12:43 | 48.53595 | 11.75574 | 10255 ft | 320 kts | 112° |
| 2026-05-07 12:43 | 48.52842 | 11.78649 | 9898 ft | 306 kts | 112° |
| 2026-05-07 12:43 | 48.52107 | 11.81641 | 9310 ft | 301 kts | 112° |
| 2026-05-07 12:44 | 48.51379 | 11.84588 | 8678 ft | 298 kts | 112° |
| 2026-05-07 12:44 | 48.50654 | 11.87505 | 8030 ft | 295 kts | 112° |
| 2026-05-07 12:44 | 48.49941 | 11.90366 | 7407 ft | 293 kts | 112° |
| 2026-05-07 12:44 | 48.49231 | 11.93228 | 6800 ft | 290 kts | 112° |
| 2026-05-07 12:45 | 48.48522 | 11.96088 | 6391 ft | 290 kts | 112° |
| 2026-05-07 12:45 | 48.47816 | 11.98941 | 6039 ft | 288 kts | 111° |
| 2026-05-07 12:45 | 48.47120 | 12.01759 | 5569 ft | 285 kts | 111° |
| 2026-05-07 12:45 | 48.46428 | 12.04554 | 5069 ft | 283 kts | 111° |
| 2026-05-07 12:46 | 48.45524 | 12.07097 | 4592 ft | 277 kts | 134° |
| 2026-05-07 12:46 | 48.43994 | 12.08700 | 4363 ft | 261 kts | 164° |
| 2026-05-07 12:46 | 48.42302 | 12.09255 | 4221 ft | 235 kts | 181° |
| 2026-05-07 12:46 | 48.40800 | 12.08741 | 4048 ft | 212 kts | 216° |
| 2026-05-07 12:47 | 48.39782 | 12.07338 | 4000 ft | 195 kts | 233° |
| 2026-05-07 12:47 | 48.38914 | 12.05782 | 4007 ft | 192 kts | 238° |
| 2026-05-07 12:47 | 48.38354 | 12.04008 | 4002 ft | 187 kts | 259° |
| 2026-05-07 12:47 | 48.38186 | 12.02069 | 3993 ft | 188 kts | 265° |
| 2026-05-07 12:48 | 48.38041 | 12.00098 | 3843 ft | 187 kts | 265° |
| 2026-05-07 12:48 | 48.37899 | 11.98203 | 3617 ft | 175 kts | 265° |
| 2026-05-07 12:48 | 48.37769 | 11.96464 | 3389 ft | 164 kts | 265° |
| 2026-05-07 12:48 | 48.37644 | 11.94798 | 3189 ft | 154 kts | 266° |
| 2026-05-07 12:49 | 48.37529 | 11.93273 | 2975 ft | 141 kts | 265° |
| 2026-05-07 12:49 | 48.37423 | 11.91853 | 2801 ft | 133 kts | 265° |
| 2026-05-07 12:49 | 48.37320 | 11.90492 | 2619 ft | 131 kts | 267° |
| 2026-05-07 12:49 | 48.37217 | 11.89123 | 2430 ft | 133 kts | 266° |
| 2026-05-07 12:50 | 48.37112 | 11.87721 | 2241 ft | 132 kts | 265° |
| 2026-05-07 12:50 | 48.37008 | 11.86350 | 2059 ft | 131 kts | 265° |
| 2026-05-07 12:50 | 48.36903 | 11.84982 | 1889 ft | 131 kts | 265° |
| 2026-05-07 12:50 | 48.36804 | 11.83593 | 1731 ft | 135 kts | 264° |
| 2026-05-07 12:51 | 48.36694 | 11.82198 | 1556 ft | 133 kts | 263° |
| 2026-05-07 12:51 | 48.36594 | 11.80906 | 1480 ft | 107 kts | 263° |
| 2026-05-07 12:51 | 48.36543 | 11.80226 | 1485 ft | 38 kts | 263° |
| 2026-05-07 12:51 | 48.36509 | 11.79889 | 1476 ft | 25 kts | 251° |
| 2026-05-07 12:52 | 48.36447 | 11.79700 | 1481 ft | 16 kts | 237° |
| 2026-05-07 12:52 | 48.36382 | 11.79562 | 1479 ft | 12 kts | 233° |
| 2026-05-07 12:52 | 48.36348 | 11.79495 | 1478 ft | 0 kts | 233° |
| 2026-05-07 12:53 | 48.36339 | 11.79477 | 1471 ft | 5 kts | 233° |
| 2026-05-07 12:53 | 48.36311 | 11.79420 | 1480 ft | 7 kts | 233° |
| 2026-05-07 12:53 | 48.36284 | 11.79363 | 1475 ft | 6 kts | 233° |
| 2026-05-07 12:53 | 48.36253 | 11.79315 | 1482 ft | 7 kts | 215° |
| 2026-05-07 12:54 | 48.36211 | 11.79295 | 1478 ft | 6 kts | 185° |
| 2026-05-07 12:54 | 48.36175 | 11.79300 | 1476 ft | 5 kts | 173° |
| 2026-05-07 12:54 | 48.36154 | 11.79304 | 1485 ft | 0 kts | 173° |
| 2026-05-07 12:55 | 48.36129 | 11.79309 | 1473 ft | 4 kts | 173° |
| 2026-05-07 12:55 | 48.36093 | 11.79315 | 1484 ft | 8 kts | 174° |
| 2026-05-07 12:56 | 48.36045 | 11.79323 | 1481 ft | 6 kts | 173° |
| 2026-05-07 12:56 | 48.36005 | 11.79331 | 1475 ft | 5 kts | 173° |
| 2026-05-07 12:56 | 48.35964 | 11.79337 | 1476 ft | 6 kts | 174° |
| 2026-05-07 12:56 | 48.35923 | 11.79351 | 1476 ft | 6 kts | 155° |
| 2026-05-07 12:57 | 48.35901 | 11.79396 | 1485 ft | 8 kts | 106° |
| 2026-05-07 12:57 | 48.35901 | 11.79474 | 1485 ft | 7 kts | 103° |
| 2026-05-07 12:57 | 48.35861 | 11.79520 | 1481 ft | 8 kts | 169° |
| 2026-05-07 12:57 | 48.35798 | 11.79530 | 1485 ft | 12 kts | 173° |
| 2026-05-07 12:58 | 48.35721 | 11.79543 | 1480 ft | 10 kts | 173° |
| 2026-05-07 12:58 | 48.35653 | 11.79555 | 1482 ft | 9 kts | 173° |
| 2026-05-07 12:58 | 48.35593 | 11.79565 | 1485 ft | 8 kts | 174° |
| 2026-05-07 12:58 | 48.35542 | 11.79574 | 1485 ft | 7 kts | 173° |
| 2026-05-07 12:59 | 48.35499 | 11.79581 | 1480 ft | 6 kts | 173° |
| 2026-05-07 12:59 | 48.35466 | 11.79593 | 1474 ft | 4 kts | 147° |
| 2026-05-07 12:59 | 48.35460 | 11.79638 | 1483 ft | 5 kts | 84° |
| 2026-05-07 12:59 | 48.35464 | 11.79681 | 1485 ft | 3 kts | 83° |
| 2026-05-07 13:00 | 48.35466 | 11.79709 | 1485 ft | 2 kts | 82° |
| 2026-05-07 13:00 | 48.35468 | 11.79727 | 1478 ft | 2 kts | 82° |
| 2026-05-07 13:00 | 48.35468 | 11.79733 | 1480 ft | 0 kts | 82° |